Ora Direzione Vento Velocita' Vento Media Vento Raffica Max. Temperatura Wind Chill Pioggia Pressione
23:59:35.0259 °(W)0.0 Kts0.0 Kts13.8 Kts24.9 °C24.9 °C0.0 mm1018.0 Hpa
23:39:12.0254 °(WSW)0.97 Kts0.97 Kts13.8 Kts25.1 °C25.1 °C0.0 mm1018.0 Hpa
23:18:35.0252 °(WSW)0.97 Kts0.97 Kts13.8 Kts25.2 °C25.2 °C0.0 mm1017.8 Hpa
22:59:04.0255 °(WSW)0.0 Kts0.0 Kts13.8 Kts25.3 °C25.3 °C0.0 mm1017.8 Hpa
22:37:27.0255 °(WSW)0.0 Kts0.0 Kts13.8 Kts25.4 °C25.4 °C0.0 mm1017.7 Hpa
22:18:43.0251 °(WSW)0.97 Kts0.97 Kts13.8 Kts25.6 °C25.6 °C0.0 mm1017.6 Hpa
21:59:35.0117 °(ESE)0.0 Kts0.0 Kts13.8 Kts25.8 °C25.8 °C0.0 mm1017.6 Hpa
21:39:10.0104 °(ESE)0.97 Kts0.97 Kts13.8 Kts26.1 °C26.1 °C0.0 mm1017.5 Hpa
21:18:42.087 °(E)0.97 Kts0.0 Kts13.8 Kts26.3 °C26.3 °C0.0 mm1017.3 Hpa
20:59:27.0140 °(SE)1.75 Kts0.97 Kts13.8 Kts26.9 °C26.9 °C0.0 mm1017.1 Hpa
20:38:58.0121 °(ESE)0.97 Kts0.0 Kts13.8 Kts27.4 °C27.4 °C0.0 mm1017.0 Hpa
20:18:21.0118 °(ESE)3.69 Kts2.72 Kts13.8 Kts28.1 °C28.1 °C0.0 mm1017.0 Hpa
19:59:23.0116 °(ESE)2.72 Kts0.97 Kts13.8 Kts28.3 °C28.3 °C0.0 mm1017.0 Hpa
19:38:54.0248 °(WSW)4.67 Kts4.67 Kts13.8 Kts29.6 °C29.6 °C0.0 mm1017.1 Hpa
19:19:16.0268 °(W)3.69 Kts3.69 Kts13.8 Kts30.5 °C30.5 °C0.0 mm1017.0 Hpa
18:58:44.0285 °(WNW)2.72 Kts2.72 Kts13.8 Kts31.1 °C31.1 °C0.0 mm1016.9 Hpa
18:38:28.0281 °(W)4.67 Kts1.75 Kts13.8 Kts30.3 °C30.3 °C0.0 mm1017.1 Hpa
18:19:31.0274 °(W)7.39 Kts4.67 Kts13.8 Kts29.1 °C29.1 °C0.0 mm1017.1 Hpa
17:59:08.0261 °(W)12.05 Kts10.11 Kts13.8 Kts29.3 °C29.3 °C0.0 mm1017.2 Hpa
17:38:18.0252 °(WSW)12.05 Kts8.36 Kts13.8 Kts29.9 °C29.9 °C0.0 mm1017.3 Hpa